sensor_id;sensor_type;location;lat;lon;timestamp;temperature;humidity
12568;DHT22;6349;50.904;6.136;2023-02-07T00:01:38;2.00;99.90
12568;DHT22;6349;50.904;6.136;2023-02-07T00:03:39;2.00;99.90
12568;DHT22;6349;50.904;6.136;2023-02-07T00:05:41;2.00;99.90
12568;DHT22;6349;50.904;6.136;2023-02-07T00:07:42;1.90;99.90
12568;DHT22;6349;50.904;6.136;2023-02-07T00:09:43;1.90;99.90
12568;DHT22;6349;50.904;6.136;2023-02-07T00:11:44;1.80;99.90
12568;DHT22;6349;50.904;6.136;2023-02-07T00:13:46;1.80;99.90
12568;DHT22;6349;50.904;6.136;2023-02-07T00:15:50;1.90;99.90
12568;DHT22;6349;50.904;6.136;2023-02-07T00:17:51;1.90;99.90
12568;DHT22;6349;50.904;6.136;2023-02-07T00:19:52;1.80;99.90
12568;DHT22;6349;50.904;6.136;2023-02-07T00:21:54;1.80;99.90
12568;DHT22;6349;50.904;6.136;2023-02-07T00:23:56;1.80;99.90
12568;DHT22;6349;50.904;6.136;2023-02-07T00:25:58;1.90;99.90
12568;DHT22;6349;50.904;6.136;2023-02-07T00:27:59;1.90;99.90
12568;DHT22;6349;50.904;6.136;2023-02-07T00:30:01;1.80;99.90
12568;DHT22;6349;50.904;6.136;2023-02-07T00:32:01;1.90;99.90
12568;DHT22;6349;50.904;6.136;2023-02-07T00:34:04;1.90;99.90
12568;DHT22;6349;50.904;6.136;2023-02-07T00:36:08;1.90;99.90
12568;DHT22;6349;50.904;6.136;2023-02-07T00:38:09;1.80;99.90
12568;DHT22;6349;50.904;6.136;2023-02-07T00:40:11;1.80;99.90
12568;DHT22;6349;50.904;6.136;2023-02-07T00:42:16;1.80;99.90
12568;DHT22;6349;50.904;6.136;2023-02-07T00:44:17;1.80;99.90
12568;DHT22;6349;50.904;6.136;2023-02-07T00:46:19;1.80;99.90
12568;DHT22;6349;50.904;6.136;2023-02-07T00:48:21;1.70;99.90
12568;DHT22;6349;50.904;6.136;2023-02-07T00:50:22;1.70;99.90
12568;DHT22;6349;50.904;6.136;2023-02-07T00:52:23;1.70;99.90
12568;DHT22;6349;50.904;6.136;2023-02-07T00:54:25;1.60;99.90
12568;DHT22;6349;50.904;6.136;2023-02-07T00:56:28;1.60;99.90
12568;DHT22;6349;50.904;6.136;2023-02-07T00:58:33;1.70;99.90
12568;DHT22;6349;50.904;6.136;2023-02-07T01:00:35;1.50;99.90
12568;DHT22;6349;50.904;6.136;2023-02-07T01:02:36;1.50;99.90
12568;DHT22;6349;50.904;6.136;2023-02-07T01:04:37;1.60;99.90
12568;DHT22;6349;50.904;6.136;2023-02-07T01:06:39;1.60;99.90
12568;DHT22;6349;50.904;6.136;2023-02-07T01:08:40;1.60;99.90
12568;DHT22;6349;50.904;6.136;2023-02-07T01:10:43;1.50;99.90
12568;DHT22;6349;50.904;6.136;2023-02-07T01:12:45;1.50;99.90
12568;DHT22;6349;50.904;6.136;2023-02-07T01:14:46;1.50;99.90
12568;DHT22;6349;50.904;6.136;2023-02-07T01:16:48;1.40;99.90
12568;DHT22;6349;50.904;6.136;2023-02-07T01:19:08;1.40;99.90
12568;DHT22;6349;50.904;6.136;2023-02-07T01:21:15;1.40;99.90
12568;DHT22;6349;50.904;6.136;2023-02-07T01:23:16;1.40;99.90
12568;DHT22;6349;50.904;6.136;2023-02-07T01:25:20;1.30;99.90
12568;DHT22;6349;50.904;6.136;2023-02-07T01:27:22;1.30;99.90
12568;DHT22;6349;50.904;6.136;2023-02-07T01:29:23;1.30;99.90
12568;DHT22;6349;50.904;6.136;2023-02-07T01:31:24;1.30;99.90
12568;DHT22;6349;50.904;6.136;2023-02-07T01:33:26;1.30;99.90
12568;DHT22;6349;50.904;6.136;2023-02-07T01:35:27;1.20;99.90
12568;DHT22;6349;50.904;6.136;2023-02-07T01:37:28;1.20;99.90
12568;DHT22;6349;50.904;6.136;2023-02-07T01:39:29;1.20;99.90
12568;DHT22;6349;50.904;6.136;2023-02-07T01:41:30;1.10;99.90
12568;DHT22;6349;50.904;6.136;2023-02-07T01:43:31;1.10;99.90
12568;DHT22;6349;50.904;6.136;2023-02-07T01:45:37;1.20;99.90
12568;DHT22;6349;50.904;6.136;2023-02-07T01:47:38;1.10;99.90
12568;DHT22;6349;50.904;6.136;2023-02-07T01:49:41;1.10;99.90
12568;DHT22;6349;50.904;6.136;2023-02-07T01:51:48;1.10;99.90
12568;DHT22;6349;50.904;6.136;2023-02-07T01:53:54;1.00;99.90
12568;DHT22;6349;50.904;6.136;2023-02-07T01:55:59;1.10;99.90
12568;DHT22;6349;50.904;6.136;2023-02-07T01:58:03;1.00;99.90
12568;DHT22;6349;50.904;6.136;2023-02-07T02:00:07;1.00;99.90
12568;DHT22;6349;50.904;6.136;2023-02-07T02:02:11;0.90;99.90
12568;DHT22;6349;50.904;6.136;2023-02-07T02:04:13;0.90;99.90
12568;DHT22;6349;50.904;6.136;2023-02-07T02:06:16;1.00;99.90
12568;DHT22;6349;50.904;6.136;2023-02-07T02:08:18;1.00;99.90
12568;DHT22;6349;50.904;6.136;2023-02-07T02:10:22;1.00;99.90
12568;DHT22;6349;50.904;6.136;2023-02-07T02:12:35;1.00;99.90
12568;DHT22;6349;50.904;6.136;2023-02-07T02:17:22;0.90;99.90
12568;DHT22;6349;50.904;6.136;2023-02-07T02:22:47;0.70;99.90
12568;DHT22;6349;50.904;6.136;2023-02-07T02:27:47;0.70;99.90
12568;DHT22;6349;50.904;6.136;2023-02-07T02:40:56;0.70;99.90
12568;DHT22;6349;50.904;6.136;2023-02-07T02:43:10;0.60;99.90
12568;DHT22;6349;50.904;6.136;2023-02-07T02:45:17;0.60;99.90
12568;DHT22;6349;50.904;6.136;2023-02-07T02:47:23;0.50;99.90
12568;DHT22;6349;50.904;6.136;2023-02-07T02:49:26;0.50;99.90
12568;DHT22;6349;50.904;6.136;2023-02-07T02:51:31;0.40;99.90
12568;DHT22;6349;50.904;6.136;2023-02-07T02:53:33;0.40;99.90
12568;DHT22;6349;50.904;6.136;2023-02-07T02:56:10;0.40;99.90
12568;DHT22;6349;50.904;6.136;2023-02-07T02:58:25;0.30;99.90
12568;DHT22;6349;50.904;6.136;2023-02-07T03:00:43;0.30;99.90
12568;DHT22;6349;50.904;6.136;2023-02-07T03:10:22;0.20;99.90
12568;DHT22;6349;50.904;6.136;2023-02-07T03:12:41;0.20;99.90
12568;DHT22;6349;50.904;6.136;2023-02-07T03:15:01;0.20;99.90
12568;DHT22;6349;50.904;6.136;2023-02-07T03:17:13;0.20;99.90
12568;DHT22;6349;50.904;6.136;2023-02-07T03:19:23;0.20;99.90
12568;DHT22;6349;50.904;6.136;2023-02-07T03:21:35;0.20;99.90
12568;DHT22;6349;50.904;6.136;2023-02-07T03:23:37;0.20;99.90
12568;DHT22;6349;50.904;6.136;2023-02-07T03:25:40;0.20;99.90
12568;DHT22;6349;50.904;6.136;2023-02-07T03:27:44;0.30;99.90
12568;DHT22;6349;50.904;6.136;2023-02-07T03:29:51;0.20;99.90
12568;DHT22;6349;50.904;6.136;2023-02-07T03:31:59;0.20;99.90
12568;DHT22;6349;50.904;6.136;2023-02-07T03:34:10;0.20;99.90
12568;DHT22;6349;50.904;6.136;2023-02-07T03:36:23;0.30;99.90
12568;DHT22;6349;50.904;6.136;2023-02-07T03:38:26;0.40;99.90
12568;DHT22;6349;50.904;6.136;2023-02-07T03:40:32;0.40;99.90
12568;DHT22;6349;50.904;6.136;2023-02-07T03:42:40;0.30;99.90
12568;DHT22;6349;50.904;6.136;2023-02-07T03:44:43;0.40;99.90
12568;DHT22;6349;50.904;6.136;2023-02-07T03:46:49;0.30;99.90
12568;DHT22;6349;50.904;6.136;2023-02-07T03:48:51;0.30;99.90
12568;DHT22;6349;50.904;6.136;2023-02-07T03:50:52;0.30;99.90
12568;DHT22;6349;50.904;6.136;2023-02-07T03:52:53;0.30;99.90
12568;DHT22;6349;50.904;6.136;2023-02-07T03:54:56;0.30;99.90
12568;DHT22;6349;50.904;6.136;2023-02-07T03:56:57;0.20;99.90
12568;DHT22;6349;50.904;6.136;2023-02-07T03:58:58;0.10;99.90
12568;DHT22;6349;50.904;6.136;2023-02-07T04:01:00;0.10;99.90
12568;DHT22;6349;50.904;6.136;2023-02-07T04:03:02;0.10;99.90
12568;DHT22;6349;50.904;6.136;2023-02-07T04:05:03;0.00;99.90
12568;DHT22;6349;50.904;6.136;2023-02-07T04:07:06;0.00;99.90
12568;DHT22;6349;50.904;6.136;2023-02-07T04:09:06;0.10;99.90
12568;DHT22;6349;50.904;6.136;2023-02-07T04:11:09;0.10;99.90
12568;DHT22;6349;50.904;6.136;2023-02-07T04:13:10;0.20;99.90
12568;DHT22;6349;50.904;6.136;2023-02-07T04:15:11;0.20;99.90
12568;DHT22;6349;50.904;6.136;2023-02-07T04:17:14;0.20;99.90
12568;DHT22;6349;50.904;6.136;2023-02-07T04:19:16;0.20;99.90
12568;DHT22;6349;50.904;6.136;2023-02-07T04:21:16;0.10;99.90
12568;DHT22;6349;50.904;6.136;2023-02-07T04:23:18;0.10;99.90
12568;DHT22;6349;50.904;6.136;2023-02-07T04:25:18;0.10;99.90
12568;DHT22;6349;50.904;6.136;2023-02-07T04:27:19;0.10;99.90
12568;DHT22;6349;50.904;6.136;2023-02-07T04:29:20;0.10;99.90
12568;DHT22;6349;50.904;6.136;2023-02-07T04:31:21;0.10;99.90
12568;DHT22;6349;50.904;6.136;2023-02-07T04:33:22;0.00;99.90
12568;DHT22;6349;50.904;6.136;2023-02-07T04:35:23;0.10;99.90
12568;DHT22;6349;50.904;6.136;2023-02-07T04:37:25;0.00;99.90
12568;DHT22;6349;50.904;6.136;2023-02-07T04:39:25;0.10;99.90
12568;DHT22;6349;50.904;6.136;2023-02-07T04:41:27;0.00;99.90
12568;DHT22;6349;50.904;6.136;2023-02-07T04:43:29;0.10;99.90
12568;DHT22;6349;50.904;6.136;2023-02-07T04:45:32;0.10;99.90
12568;DHT22;6349;50.904;6.136;2023-02-07T04:47:34;0.10;99.90
12568;DHT22;6349;50.904;6.136;2023-02-07T04:49:36;0.10;99.90
12568;DHT22;6349;50.904;6.136;2023-02-07T04:51:37;0.20;99.90
12568;DHT22;6349;50.904;6.136;2023-02-07T04:53:38;0.20;99.90
12568;DHT22;6349;50.904;6.136;2023-02-07T04:55:40;0.20;99.90
12568;DHT22;6349;50.904;6.136;2023-02-07T04:57:40;0.20;99.90
12568;DHT22;6349;50.904;6.136;2023-02-07T04:59:42;0.10;99.90
12568;DHT22;6349;50.904;6.136;2023-02-07T05:01:46;0.20;99.90
12568;DHT22;6349;50.904;6.136;2023-02-07T05:03:47;0.10;99.90
12568;DHT22;6349;50.904;6.136;2023-02-07T05:05:48;0.10;99.90
12568;DHT22;6349;50.904;6.136;2023-02-07T05:07:48;0.10;99.90
12568;DHT22;6349;50.904;6.136;2023-02-07T05:09:49;0.10;99.90
12568;DHT22;6349;50.904;6.136;2023-02-07T05:11:52;0.20;99.90
12568;DHT22;6349;50.904;6.136;2023-02-07T05:13:54;0.20;99.90
12568;DHT22;6349;50.904;6.136;2023-02-07T05:15:55;0.30;99.90
12568;DHT22;6349;50.904;6.136;2023-02-07T05:17:56;0.30;99.90
12568;DHT22;6349;50.904;6.136;2023-02-07T05:19:57;0.40;99.90
12568;DHT22;6349;50.904;6.136;2023-02-07T05:21:58;0.30;99.90
12568;DHT22;6349;50.904;6.136;2023-02-07T05:23:59;0.40;99.90
12568;DHT22;6349;50.904;6.136;2023-02-07T05:26:01;0.20;99.90
12568;DHT22;6349;50.904;6.136;2023-02-07T05:28:01;0.20;99.90
12568;DHT22;6349;50.904;6.136;2023-02-07T05:30:03;0.20;99.90
12568;DHT22;6349;50.904;6.136;2023-02-07T05:32:06;0.20;99.90
12568;DHT22;6349;50.904;6.136;2023-02-07T05:34:28;0.20;99.90
12568;DHT22;6349;50.904;6.136;2023-02-07T05:36:30;0.30;99.90
12568;DHT22;6349;50.904;6.136;2023-02-07T05:38:31;0.30;99.90
12568;DHT22;6349;50.904;6.136;2023-02-07T05:40:32;0.30;99.90
12568;DHT22;6349;50.904;6.136;2023-02-07T05:42:34;0.40;99.90
12568;DHT22;6349;50.904;6.136;2023-02-07T05:44:35;0.40;99.90
12568;DHT22;6349;50.904;6.136;2023-02-07T05:46:37;0.40;99.90
12568;DHT22;6349;50.904;6.136;2023-02-07T05:48:39;0.40;99.90
12568;DHT22;6349;50.904;6.136;2023-02-07T05:50:40;0.30;99.90
12568;DHT22;6349;50.904;6.136;2023-02-07T05:52:42;0.20;99.90
12568;DHT22;6349;50.904;6.136;2023-02-07T05:54:43;0.10;99.90
12568;DHT22;6349;50.904;6.136;2023-02-07T05:56:44;0.10;99.90
12568;DHT22;6349;50.904;6.136;2023-02-07T05:58:46;0.00;99.90
12568;DHT22;6349;50.904;6.136;2023-02-07T06:00:47;0.00;99.90
12568;DHT22;6349;50.904;6.136;2023-02-07T06:02:48;0.00;99.90
12568;DHT22;6349;50.904;6.136;2023-02-07T06:04:50;0.10;99.90
12568;DHT22;6349;50.904;6.136;2023-02-07T06:06:52;0.00;99.90
12568;DHT22;6349;50.904;6.136;2023-02-07T06:08:53;0.10;99.90
12568;DHT22;6349;50.904;6.136;2023-02-07T06:10:55;0.10;99.90
12568;DHT22;6349;50.904;6.136;2023-02-07T06:12:56;0.10;99.90
12568;DHT22;6349;50.904;6.136;2023-02-07T06:14:57;0.10;99.90
12568;DHT22;6349;50.904;6.136;2023-02-07T06:16:59;0.20;99.90
12568;DHT22;6349;50.904;6.136;2023-02-07T06:19:01;0.10;99.90
12568;DHT22;6349;50.904;6.136;2023-02-07T06:21:03;0.00;99.90
12568;DHT22;6349;50.904;6.136;2023-02-07T06:23:04;0.00;99.90
12568;DHT22;6349;50.904;6.136;2023-02-07T06:25:06;0.00;99.90
12568;DHT22;6349;50.904;6.136;2023-02-07T06:27:11;-0.10;99.90
12568;DHT22;6349;50.904;6.136;2023-02-07T06:29:13;-0.20;99.90
12568;DHT22;6349;50.904;6.136;2023-02-07T06:31:14;-0.20;99.90
12568;DHT22;6349;50.904;6.136;2023-02-07T06:33:15;-0.30;99.90
12568;DHT22;6349;50.904;6.136;2023-02-07T06:35:17;-0.30;99.90
12568;DHT22;6349;50.904;6.136;2023-02-07T06:37:19;-0.40;99.90
12568;DHT22;6349;50.904;6.136;2023-02-07T06:39:20;-0.40;99.90
12568;DHT22;6349;50.904;6.136;2023-02-07T06:41:21;-0.30;99.90
12568;DHT22;6349;50.904;6.136;2023-02-07T06:43:23;-0.30;99.90
12568;DHT22;6349;50.904;6.136;2023-02-07T06:45:24;-0.40;99.90
12568;DHT22;6349;50.904;6.136;2023-02-07T06:47:26;-0.40;99.90
12568;DHT22;6349;50.904;6.136;2023-02-07T06:49:27;-0.40;99.90
12568;DHT22;6349;50.904;6.136;2023-02-07T06:51:28;-0.40;99.90
12568;DHT22;6349;50.904;6.136;2023-02-07T06:53:29;-0.50;99.90
12568;DHT22;6349;50.904;6.136;2023-02-07T06:55:34;-0.40;99.90
12568;DHT22;6349;50.904;6.136;2023-02-07T06:57:35;-0.40;99.90
12568;DHT22;6349;50.904;6.136;2023-02-07T06:59:37;-0.40;99.90
12568;DHT22;6349;50.904;6.136;2023-02-07T07:01:39;-0.60;99.90
12568;DHT22;6349;50.904;6.136;2023-02-07T07:03:40;-0.50;99.90
12568;DHT22;6349;50.904;6.136;2023-02-07T07:05:41;-0.60;99.90
12568;DHT22;6349;50.904;6.136;2023-02-07T07:07:42;-0.60;99.90
12568;DHT22;6349;50.904;6.136;2023-02-07T07:09:44;-0.60;99.90
12568;DHT22;6349;50.904;6.136;2023-02-07T07:11:45;-0.70;99.90
12568;DHT22;6349;50.904;6.136;2023-02-07T07:13:47;-0.70;99.90
12568;DHT22;6349;50.904;6.136;2023-02-07T07:15:48;-0.70;99.90
12568;DHT22;6349;50.904;6.136;2023-02-07T07:17:50;-0.70;99.90
12568;DHT22;6349;50.904;6.136;2023-02-07T07:19:52;-0.70;99.90
12568;DHT22;6349;50.904;6.136;2023-02-07T07:21:53;-0.80;99.90
12568;DHT22;6349;50.904;6.136;2023-02-07T07:23:56;-0.70;99.90
12568;DHT22;6349;50.904;6.136;2023-02-07T07:25:58;-0.70;99.90
12568;DHT22;6349;50.904;6.136;2023-02-07T07:27:59;-0.70;99.90
12568;DHT22;6349;50.904;6.136;2023-02-07T07:30:01;-0.70;99.90
12568;DHT22;6349;50.904;6.136;2023-02-07T07:32:03;-0.70;99.90
12568;DHT22;6349;50.904;6.136;2023-02-07T07:34:04;-0.60;99.90
12568;DHT22;6349;50.904;6.136;2023-02-07T07:36:05;-0.50;99.90
12568;DHT22;6349;50.904;6.136;2023-02-07T07:38:07;-0.30;99.90
12568;DHT22;6349;50.904;6.136;2023-02-07T07:40:08;-0.30;99.90
12568;DHT22;6349;50.904;6.136;2023-02-07T07:42:10;-0.30;99.90
12568;DHT22;6349;50.904;6.136;2023-02-07T07:44:11;-0.30;99.90
12568;DHT22;6349;50.904;6.136;2023-02-07T07:46:12;-0.20;99.90
12568;DHT22;6349;50.904;6.136;2023-02-07T07:48:13;-0.20;99.90
12568;DHT22;6349;50.904;6.136;2023-02-07T07:50:14;-0.20;99.90
12568;DHT22;6349;50.904;6.136;2023-02-07T07:52:15;-0.10;99.90
12568;DHT22;6349;50.904;6.136;2023-02-07T07:54:20;-0.20;99.90
12568;DHT22;6349;50.904;6.136;2023-02-07T07:56:22;-0.20;99.90
12568;DHT22;6349;50.904;6.136;2023-02-07T08:04:42;-0.10;99.90
12568;DHT22;6349;50.904;6.136;2023-02-07T08:06:44;-0.10;99.90
12568;DHT22;6349;50.904;6.136;2023-02-07T08:08:45;0.00;99.90
12568;DHT22;6349;50.904;6.136;2023-02-07T08:10:47;0.00;99.90
12568;DHT22;6349;50.904;6.136;2023-02-07T08:12:49;0.00;99.90
12568;DHT22;6349;50.904;6.136;2023-02-07T08:14:49;0.00;99.90
12568;DHT22;6349;50.904;6.136;2023-02-07T08:16:51;0.00;99.90
12568;DHT22;6349;50.904;6.136;2023-02-07T08:18:55;0.00;99.90
12568;DHT22;6349;50.904;6.136;2023-02-07T08:20:56;0.10;99.90
12568;DHT22;6349;50.904;6.136;2023-02-07T08:22:58;0.10;99.90
12568;DHT22;6349;50.904;6.136;2023-02-07T08:25:00;0.10;99.90
12568;DHT22;6349;50.904;6.136;2023-02-07T08:27:01;0.10;99.90
12568;DHT22;6349;50.904;6.136;2023-02-07T08:29:04;0.20;99.90
12568;DHT22;6349;50.904;6.136;2023-02-07T08:34:05;0.30;99.90
12568;DHT22;6349;50.904;6.136;2023-02-07T08:36:06;0.30;99.90
12568;DHT22;6349;50.904;6.136;2023-02-07T08:38:10;0.40;99.90
12568;DHT22;6349;50.904;6.136;2023-02-07T08:40:12;0.40;99.90
12568;DHT22;6349;50.904;6.136;2023-02-07T08:42:14;0.40;99.90
12568;DHT22;6349;50.904;6.136;2023-02-07T08:44:15;0.40;99.90
12568;DHT22;6349;50.904;6.136;2023-02-07T08:46:15;0.50;99.90
12568;DHT22;6349;50.904;6.136;2023-02-07T08:48:16;0.50;99.90
12568;DHT22;6349;50.904;6.136;2023-02-07T08:50:18;0.50;99.90
12568;DHT22;6349;50.904;6.136;2023-02-07T08:52:19;0.50;99.90
12568;DHT22;6349;50.904;6.136;2023-02-07T08:54:19;0.40;99.90
12568;DHT22;6349;50.904;6.136;2023-02-07T08:56:20;0.60;99.90
12568;DHT22;6349;50.904;6.136;2023-02-07T08:58:21;0.40;99.90
12568;DHT22;6349;50.904;6.136;2023-02-07T09:00:22;0.60;99.90
12568;DHT22;6349;50.904;6.136;2023-02-07T09:02:23;0.60;99.90
12568;DHT22;6349;50.904;6.136;2023-02-07T09:04:23;0.70;99.90
12568;DHT22;6349;50.904;6.136;2023-02-07T09:06:25;0.70;99.90
12568;DHT22;6349;50.904;6.136;2023-02-07T09:08:26;0.70;99.90
12568;DHT22;6349;50.904;6.136;2023-02-07T09:10:26;0.70;99.90
12568;DHT22;6349;50.904;6.136;2023-02-07T09:12:27;0.70;99.90
12568;DHT22;6349;50.904;6.136;2023-02-07T09:14:28;0.70;99.90
12568;DHT22;6349;50.904;6.136;2023-02-07T09:16:29;0.80;99.90
12568;DHT22;6349;50.904;6.136;2023-02-07T09:18:29;0.70;99.90
12568;DHT22;6349;50.904;6.136;2023-02-07T09:20:30;0.80;99.90
12568;DHT22;6349;50.904;6.136;2023-02-07T09:22:31;0.70;99.90
12568;DHT22;6349;50.904;6.136;2023-02-07T09:24:32;0.80;99.90
12568;DHT22;6349;50.904;6.136;2023-02-07T09:26:33;0.80;99.90
12568;DHT22;6349;50.904;6.136;2023-02-07T09:28:34;0.80;99.90
12568;DHT22;6349;50.904;6.136;2023-02-07T09:30:36;0.80;99.90
12568;DHT22;6349;50.904;6.136;2023-02-07T09:32:39;0.90;99.90
12568;DHT22;6349;50.904;6.136;2023-02-07T09:34:40;0.90;99.90
12568;DHT22;6349;50.904;6.136;2023-02-07T09:36:42;0.90;99.90
12568;DHT22;6349;50.904;6.136;2023-02-07T09:38:43;1.00;99.90
12568;DHT22;6349;50.904;6.136;2023-02-07T09:40:45;1.00;99.90
12568;DHT22;6349;50.904;6.136;2023-02-07T09:42:59;1.10;99.90
12568;DHT22;6349;50.904;6.136;2023-02-07T09:45:11;1.10;99.90
12568;DHT22;6349;50.904;6.136;2023-02-07T09:47:20;1.10;99.90
12568;DHT22;6349;50.904;6.136;2023-02-07T09:51:59;1.20;99.90
12568;DHT22;6349;50.904;6.136;2023-02-07T09:54:05;1.30;99.90
12568;DHT22;6349;50.904;6.136;2023-02-07T09:56:07;1.20;99.90
12568;DHT22;6349;50.904;6.136;2023-02-07T09:58:16;1.30;99.90
12568;DHT22;6349;50.904;6.136;2023-02-07T10:00:22;1.30;99.90
12568;DHT22;6349;50.904;6.136;2023-02-07T10:02:37;1.30;99.90
12568;DHT22;6349;50.904;6.136;2023-02-07T10:04:43;1.40;99.90
12568;DHT22;6349;50.904;6.136;2023-02-07T10:06:49;1.40;99.90
12568;DHT22;6349;50.904;6.136;2023-02-07T10:08:54;1.40;99.90
12568;DHT22;6349;50.904;6.136;2023-02-07T10:11:11;1.40;99.90
12568;DHT22;6349;50.904;6.136;2023-02-07T10:13:51;1.40;99.90
12568;DHT22;6349;50.904;6.136;2023-02-07T10:18:32;1.50;99.90
12568;DHT22;6349;50.904;6.136;2023-02-07T10:20:46;1.50;99.90
12568;DHT22;6349;50.904;6.136;2023-02-07T10:23:20;1.60;99.90
12568;DHT22;6349;50.904;6.136;2023-02-07T10:25:50;1.70;99.90
12568;DHT22;6349;50.904;6.136;2023-02-07T10:30:27;1.70;99.90
12568;DHT22;6349;50.904;6.136;2023-02-07T10:32:32;1.70;99.90
12568;DHT22;6349;50.904;6.136;2023-02-07T10:34:36;1.80;99.90
12568;DHT22;6349;50.904;6.136;2023-02-07T10:36:42;1.80;99.90
12568;DHT22;6349;50.904;6.136;2023-02-07T10:39:00;1.80;99.90
12568;DHT22;6349;50.904;6.136;2023-02-07T10:41:30;1.80;99.90
12568;DHT22;6349;50.904;6.136;2023-02-07T10:43:34;1.90;99.90
12568;DHT22;6349;50.904;6.136;2023-02-07T10:45:39;1.90;99.90
12568;DHT22;6349;50.904;6.136;2023-02-07T10:47:42;1.90;99.90
12568;DHT22;6349;50.904;6.136;2023-02-07T10:49:46;2.00;99.90
12568;DHT22;6349;50.904;6.136;2023-02-07T10:51:50;2.00;99.90
12568;DHT22;6349;50.904;6.136;2023-02-07T10:54:11;2.00;99.90
12568;DHT22;6349;50.904;6.136;2023-02-07T10:56:23;2.10;99.90
12568;DHT22;6349;50.904;6.136;2023-02-07T10:58:37;2.10;99.90
12568;DHT22;6349;50.904;6.136;2023-02-07T11:00:42;2.10;99.90
12568;DHT22;6349;50.904;6.136;2023-02-07T11:02:50;2.10;99.90
12568;DHT22;6349;50.904;6.136;2023-02-07T11:04:57;2.20;99.90
12568;DHT22;6349;50.904;6.136;2023-02-07T11:07:01;2.20;99.90
12568;DHT22;6349;50.904;6.136;2023-02-07T11:09:18;2.20;99.90
12568;DHT22;6349;50.904;6.136;2023-02-07T11:13:45;2.30;99.90
12568;DHT22;6349;50.904;6.136;2023-02-07T11:15:53;2.30;99.90
12568;DHT22;6349;50.904;6.136;2023-02-07T11:17:55;2.40;99.90
12568;DHT22;6349;50.904;6.136;2023-02-07T11:20:02;2.40;99.90
12568;DHT22;6349;50.904;6.136;2023-02-07T11:22:09;2.40;99.90
12568;DHT22;6349;50.904;6.136;2023-02-07T11:24:18;2.50;99.90
12568;DHT22;6349;50.904;6.136;2023-02-07T11:26:21;2.50;99.90
12568;DHT22;6349;50.904;6.136;2023-02-07T11:28:27;2.60;99.90
12568;DHT22;6349;50.904;6.136;2023-02-07T11:30:34;2.60;99.90
12568;DHT22;6349;50.904;6.136;2023-02-07T11:32:37;2.60;99.90
12568;DHT22;6349;50.904;6.136;2023-02-07T11:34:47;2.60;99.90
12568;DHT22;6349;50.904;6.136;2023-02-07T11:36:50;2.70;99.90
12568;DHT22;6349;50.904;6.136;2023-02-07T11:38:56;2.70;99.90
12568;DHT22;6349;50.904;6.136;2023-02-07T11:40:59;2.70;99.90
12568;DHT22;6349;50.904;6.136;2023-02-07T11:43:23;2.80;99.90
12568;DHT22;6349;50.904;6.136;2023-02-07T11:45:26;2.80;99.90
12568;DHT22;6349;50.904;6.136;2023-02-07T11:47:29;2.80;99.90
12568;DHT22;6349;50.904;6.136;2023-02-07T11:49:50;2.90;99.90
12568;DHT22;6349;50.904;6.136;2023-02-07T11:51:58;2.90;99.90
12568;DHT22;6349;50.904;6.136;2023-02-07T11:54:04;3.00;99.90
12568;DHT22;6349;50.904;6.136;2023-02-07T12:00:36;3.00;99.90
12568;DHT22;6349;50.904;6.136;2023-02-07T12:02:50;3.10;99.90
12568;DHT22;6349;50.904;6.136;2023-02-07T12:05:19;3.20;99.90
12568;DHT22;6349;50.904;6.136;2023-02-07T12:07:31;3.30;99.90
12568;DHT22;6349;50.904;6.136;2023-02-07T12:09:42;3.30;99.90
12568;DHT22;6349;50.904;6.136;2023-02-07T12:11:43;3.40;99.90
12568;DHT22;6349;50.904;6.136;2023-02-07T12:13:50;3.40;99.90
12568;DHT22;6349;50.904;6.136;2023-02-07T12:15:58;3.50;99.90
12568;DHT22;6349;50.904;6.136;2023-02-07T12:18:47;3.50;99.90
12568;DHT22;6349;50.904;6.136;2023-02-07T12:21:19;3.50;99.90
12568;DHT22;6349;50.904;6.136;2023-02-07T12:25:54;3.60;99.90
12568;DHT22;6349;50.904;6.136;2023-02-07T12:28:00;3.70;99.90
12568;DHT22;6349;50.904;6.136;2023-02-07T12:30:28;3.70;99.90
12568;DHT22;6349;50.904;6.136;2023-02-07T12:37:41;3.90;99.90
12568;DHT22;6349;50.904;6.136;2023-02-07T12:39:52;3.90;99.90
12568;DHT22;6349;50.904;6.136;2023-02-07T12:44:41;4.00;99.90
12568;DHT22;6349;50.904;6.136;2023-02-07T12:47:11;4.00;99.90
12568;DHT22;6349;50.904;6.136;2023-02-07T12:52:22;4.10;99.90
12568;DHT22;6349;50.904;6.136;2023-02-07T12:55:12;4.20;99.90
12568;DHT22;6349;50.904;6.136;2023-02-07T12:57:11;4.10;99.90
12568;DHT22;6349;50.904;6.136;2023-02-07T13:01:58;4.20;99.90
12568;DHT22;6349;50.904;6.136;2023-02-07T13:06:51;4.30;99.90
12568;DHT22;6349;50.904;6.136;2023-02-07T13:09:09;4.30;99.90
12568;DHT22;6349;50.904;6.136;2023-02-07T13:11:29;4.30;99.90
12568;DHT22;6349;50.904;6.136;2023-02-07T13:13:42;4.30;99.90
12568;DHT22;6349;50.904;6.136;2023-02-07T13:15:57;4.40;99.90
12568;DHT22;6349;50.904;6.136;2023-02-07T13:18:13;4.40;99.90
12568;DHT22;6349;50.904;6.136;2023-02-07T13:20:42;4.40;99.90
12568;DHT22;6349;50.904;6.136;2023-02-07T13:22:56;4.40;99.90
12568;DHT22;6349;50.904;6.136;2023-02-07T13:25:00;4.50;99.90
12568;DHT22;6349;50.904;6.136;2023-02-07T13:27:08;4.40;99.90
12568;DHT22;6349;50.904;6.136;2023-02-07T13:29:13;4.50;99.90
12568;DHT22;6349;50.904;6.136;2023-02-07T13:31:18;4.50;99.90
12568;DHT22;6349;50.904;6.136;2023-02-07T13:33:35;4.50;99.90
12568;DHT22;6349;50.904;6.136;2023-02-07T13:35:38;4.50;99.90
12568;DHT22;6349;50.904;6.136;2023-02-07T13:38:34;4.50;99.90
12568;DHT22;6349;50.904;6.136;2023-02-07T13:40:34;4.60;99.90
12568;DHT22;6349;50.904;6.136;2023-02-07T13:42:43;4.60;99.90
12568;DHT22;6349;50.904;6.136;2023-02-07T13:47:40;4.70;99.90
12568;DHT22;6349;50.904;6.136;2023-02-07T13:52:23;4.70;99.90
12568;DHT22;6349;50.904;6.136;2023-02-07T13:57:19;4.80;99.90
12568;DHT22;6349;50.904;6.136;2023-02-07T13:59:40;4.70;99.90
12568;DHT22;6349;50.904;6.136;2023-02-07T14:01:50;4.80;99.90
12568;DHT22;6349;50.904;6.136;2023-02-07T14:04:11;4.90;99.90
12568;DHT22;6349;50.904;6.136;2023-02-07T14:08:27;4.90;99.90
12568;DHT22;6349;50.904;6.136;2023-02-07T14:12:57;4.80;99.90
12568;DHT22;6349;50.904;6.136;2023-02-07T14:19:53;4.80;99.90
12568;DHT22;6349;50.904;6.136;2023-02-07T14:24:33;4.80;99.90
12568;DHT22;6349;50.904;6.136;2023-02-07T14:28:41;4.80;99.90
12568;DHT22;6349;50.904;6.136;2023-02-07T14:33:19;4.90;99.90
12568;DHT22;6349;50.904;6.136;2023-02-07T14:37:49;4.80;99.90
12568;DHT22;6349;50.904;6.136;2023-02-07T14:40:06;4.80;99.90
12568;DHT22;6349;50.904;6.136;2023-02-07T14:42:14;4.90;99.90
12568;DHT22;6349;50.904;6.136;2023-02-07T14:44:24;4.90;99.90
12568;DHT22;6349;50.904;6.136;2023-02-07T14:46:30;4.80;99.90
12568;DHT22;6349;50.904;6.136;2023-02-07T14:48:46;4.80;99.90
12568;DHT22;6349;50.904;6.136;2023-02-07T14:50:51;4.90;99.90
12568;DHT22;6349;50.904;6.136;2023-02-07T14:52:52;4.90;99.90
12568;DHT22;6349;50.904;6.136;2023-02-07T14:54:59;4.90;99.90
12568;DHT22;6349;50.904;6.136;2023-02-07T14:59:41;4.80;99.90
12568;DHT22;6349;50.904;6.136;2023-02-07T15:01:44;4.90;99.90
12568;DHT22;6349;50.904;6.136;2023-02-07T15:03:45;4.80;99.90
12568;DHT22;6349;50.904;6.136;2023-02-07T15:05:53;4.80;99.90
12568;DHT22;6349;50.904;6.136;2023-02-07T15:08:12;4.80;99.90
12568;DHT22;6349;50.904;6.136;2023-02-07T15:10:23;4.80;99.90
12568;DHT22;6349;50.904;6.136;2023-02-07T15:12:26;4.70;99.90
12568;DHT22;6349;50.904;6.136;2023-02-07T15:14:31;4.80;99.90
12568;DHT22;6349;50.904;6.136;2023-02-07T15:16:33;4.70;99.90